createdAt,value
2022-10-14T00:00:25.675Z,95.39
2022-10-14T00:01:25.713Z,95.29
2022-10-14T00:02:25.629Z,95.29
2022-10-14T00:03:25.678Z,95.39
2022-10-14T00:04:25.605Z,95.29
2022-10-14T00:05:25.595Z,95.39
2022-10-14T00:06:25.592Z,95.49
2022-10-14T00:07:25.607Z,95.53
2022-10-14T00:08:25.551Z,95.39
2022-10-14T00:09:25.569Z,95.18
2022-10-14T00:10:25.521Z,95.08
2022-10-14T00:11:25.571Z,95.08
2022-10-14T00:12:25.532Z,95.18
2022-10-14T00:13:25.532Z,95.43
2022-10-14T00:14:25.473Z,95.59
2022-10-14T00:15:25.474Z,95.29
2022-10-14T00:16:25.453Z,95.39
2022-10-14T00:17:25.434Z,95.29
2022-10-14T00:18:25.424Z,95.39
2022-10-14T00:19:25.423Z,95.29
2022-10-14T00:20:25.814Z,95.18
2022-10-14T00:21:26.301Z,95.08
2022-10-14T00:22:26.253Z,95.03
2022-10-14T00:23:25.965Z,94.98
2022-10-14T00:24:25.354Z,95.18
2022-10-14T00:25:25.348Z,95.29
2022-10-14T00:26:25.330Z,95.08
2022-10-14T00:27:25.316Z,94.98
2022-10-14T00:28:25.351Z,94.98
2022-10-14T00:29:25.293Z,94.88
2022-10-14T00:30:25.301Z,94.98
2022-10-14T00:31:25.528Z,95.18
2022-10-14T00:32:25.247Z,95.18
2022-10-14T00:33:25.229Z,95.18
2022-10-14T00:34:25.217Z,95.08
2022-10-14T00:35:25.447Z,95.18
2022-10-14T00:36:25.189Z,95.08
2022-10-14T00:37:25.183Z,95.08
2022-10-14T00:38:25.164Z,95.08
2022-10-14T00:39:25.144Z,94.88
2022-10-14T00:40:25.301Z,95.08
2022-10-14T00:41:25.150Z,95.18
2022-10-14T00:42:26.097Z,95.39
2022-10-14T00:43:25.094Z,95.39
2022-10-14T00:44:25.070Z,95.29
2022-10-14T00:45:25.088Z,95.08
2022-10-14T00:46:25.053Z,95.18
2022-10-14T00:47:25.039Z,95.39
2022-10-14T00:48:25.031Z,95.39
2022-10-14T00:49:25.481Z,94.98
2022-10-14T00:50:25.023Z,95.18
2022-10-14T00:51:24.983Z,94.98
2022-10-14T00:52:24.986Z,94.98
2022-10-14T00:53:24.970Z,95.08
2022-10-14T00:54:24.943Z,95.18
2022-10-14T00:55:24.943Z,95.18
2022-10-14T00:56:25.733Z,95.18
2022-10-14T00:57:24.912Z,94.98
2022-10-14T00:58:24.895Z,95.08
2022-10-14T00:59:25.115Z,94.88
2022-10-14T01:00:24.911Z,94.78
2022-10-14T01:01:24.872Z,94.98
2022-10-14T01:02:25.575Z,94.88
2022-10-14T01:03:24.835Z,94.78
2022-10-14T01:04:25.536Z,94.78
2022-10-14T01:05:24.818Z,94.88
2022-10-14T01:06:25.745Z,94.88
2022-10-14T01:07:24.778Z,94.78
2022-10-14T01:08:24.758Z,94.88
2022-10-14T01:09:24.747Z,95.08
2022-10-14T01:10:24.876Z,94.88
2022-10-14T01:11:24.728Z,94.98
2022-10-14T01:12:29.268Z,94.98
2022-10-14T01:13:25.698Z,95.08
2022-10-14T01:14:24.697Z,94.88
2022-10-14T01:15:24.689Z,94.78
2022-10-14T01:16:24.660Z,95.08
2022-10-14T01:17:24.640Z,95.18
2022-10-14T01:18:24.961Z,95.29
2022-10-14T01:19:24.613Z,95.39
2022-10-14T01:20:24.623Z,95.29
2022-10-14T01:21:24.624Z,95.39
2022-10-14T01:22:25.753Z,95.39
2022-10-14T01:23:25.535Z,95.49
2022-10-14T01:24:25.510Z,95.49
2022-10-14T01:25:24.687Z,95.59
2022-10-14T01:26:25.574Z,95.49
2022-10-14T01:27:24.533Z,95.49
2022-10-14T01:28:24.548Z,95.59
2022-10-14T01:29:24.726Z,95.59
2022-10-14T01:30:24.491Z,95.49
2022-10-14T01:31:24.478Z,95.49
2022-10-14T01:32:24.732Z,95.29
2022-10-14T01:33:24.438Z,95.29
2022-10-14T01:34:24.424Z,95.39
2022-10-14T01:35:24.416Z,95.39
2022-10-14T01:36:24.399Z,95.49
2022-10-14T01:37:24.666Z,95.59
2022-10-14T01:38:24.383Z,95.49
2022-10-14T01:39:24.365Z,95.29
2022-10-14T01:40:24.616Z,95.29
2022-10-14T01:41:24.336Z,95.39
2022-10-14T01:42:24.472Z,95.39
2022-10-14T01:43:24.308Z,95.39
2022-10-14T01:44:24.621Z,95.39
2022-10-14T01:45:24.577Z,95.18
2022-10-14T01:46:25.207Z,95.08
2022-10-14T01:47:24.260Z,95.08
2022-10-14T01:48:24.248Z,95.29
2022-10-14T01:49:25.176Z,95.18
2022-10-14T01:50:24.449Z,94.98
2022-10-14T01:51:24.209Z,95.18
2022-10-14T01:52:24.539Z,95.49
2022-10-14T01:53:24.852Z,95.59
2022-10-14T01:54:24.170Z,95.59
2022-10-14T01:55:24.152Z,95.59
2022-10-14T01:56:24.133Z,95.49
2022-10-14T01:57:25.417Z,95.59
2022-10-14T01:58:24.111Z,95.49
2022-10-14T01:59:24.092Z,95.49
2022-10-14T02:00:24.092Z,95.69
2022-10-14T02:01:24.369Z,95.79
2022-10-14T02:02:24.438Z,95.90
2022-10-14T02:03:24.053Z,95.79
2022-10-14T02:04:24.041Z,95.59
2022-10-14T02:05:24.024Z,95.49
2022-10-14T02:06:24.014Z,95.39
2022-10-14T02:07:23.991Z,95.69
2022-10-14T02:08:23.970Z,95.90
2022-10-14T02:09:23.972Z,96.00
2022-10-14T02:10:23.962Z,95.90
2022-10-14T02:11:23.947Z,95.90
2022-10-14T02:12:24.191Z,95.90
2022-10-14T02:13:23.916Z,95.90
2022-10-14T02:14:23.906Z,95.79
2022-10-14T02:15:23.897Z,95.79
2022-10-14T02:16:23.886Z,95.69
2022-10-14T02:17:23.858Z,95.49
2022-10-14T02:18:23.856Z,95.59
2022-10-14T02:19:24.587Z,95.29
2022-10-14T02:20:23.829Z,95.18
2022-10-14T02:21:24.268Z,95.29
2022-10-14T02:22:24.064Z,95.39
2022-10-14T02:23:23.783Z,95.29
2022-10-14T02:24:23.769Z,95.18
2022-10-14T02:25:25.069Z,95.29
2022-10-14T02:26:23.740Z,95.39
2022-10-14T02:27:23.762Z,95.59
2022-10-14T02:28:23.778Z,95.39
2022-10-14T02:29:23.708Z,95.49
2022-10-14T02:30:23.684Z,95.39
2022-10-14T02:31:23.689Z,95.39
2022-10-14T02:32:24.050Z,95.18
2022-10-14T02:33:23.651Z,95.29
2022-10-14T02:34:23.642Z,95.39
2022-10-14T02:35:24.593Z,95.59
2022-10-14T02:36:23.615Z,95.59
2022-10-14T02:37:24.564Z,95.59
2022-10-14T02:38:23.584Z,95.49
2022-10-14T02:39:24.538Z,95.49
2022-10-14T02:40:23.560Z,95.49
2022-10-14T02:41:23.557Z,95.49
2022-10-14T02:42:23.765Z,95.59
2022-10-14T02:43:23.524Z,95.79
2022-10-14T02:44:23.535Z,95.84
2022-10-14T02:45:23.503Z,95.59
2022-10-14T02:46:23.483Z,95.64
2022-10-14T02:47:23.465Z,95.74
2022-10-14T02:48:23.472Z,95.69
2022-10-14T02:49:23.465Z,95.64
2022-10-14T02:50:23.429Z,95.69
2022-10-14T02:51:23.407Z,95.74
2022-10-14T02:52:23.686Z,95.84
2022-10-14T02:53:23.397Z,95.74
2022-10-14T02:54:23.389Z,95.94
2022-10-14T02:55:23.358Z,95.94
2022-10-14T02:56:23.350Z,95.94
2022-10-14T02:57:23.343Z,95.84
2022-10-14T02:58:23.330Z,95.84
2022-10-14T02:59:23.318Z,95.84
2022-10-14T03:00:23.299Z,95.84
2022-10-14T03:01:23.326Z,95.94
2022-10-14T03:02:23.500Z,95.94
2022-10-14T03:03:23.289Z,96.04
2022-10-14T03:04:23.720Z,95.94
2022-10-14T03:05:23.230Z,95.84
2022-10-14T03:06:23.220Z,95.74
2022-10-14T03:07:23.212Z,95.84
2022-10-14T03:08:23.207Z,95.94
2022-10-14T03:09:23.189Z,95.84
2022-10-14T03:10:23.170Z,96.04
2022-10-14T03:11:23.163Z,96.25
2022-10-14T03:12:23.453Z,96.25
2022-10-14T03:13:23.134Z,96.35
2022-10-14T03:14:23.134Z,96.45
2022-10-14T03:15:23.113Z,96.35
2022-10-14T03:16:23.174Z,96.45
2022-10-14T03:17:23.073Z,96.45
2022-10-14T03:18:23.064Z,96.45
2022-10-14T03:19:23.060Z,96.45
2022-10-14T03:20:23.035Z,96.04
2022-10-14T03:21:23.030Z,96.15
2022-10-14T03:22:23.398Z,96.15
2022-10-14T03:23:23.008Z,95.94
2022-10-14T03:24:22.996Z,95.94
2022-10-14T03:25:23.307Z,95.78
2022-10-14T03:26:22.947Z,95.84
2022-10-14T03:27:22.938Z,96.04
2022-10-14T03:28:22.975Z,96.30
2022-10-14T03:29:22.915Z,96.30
2022-10-14T03:30:22.897Z,96.30
2022-10-14T03:31:22.894Z,96.39
2022-10-14T03:32:23.198Z,96.39
2022-10-14T03:33:25.922Z,96.50
2022-10-14T03:34:23.102Z,96.50
2022-10-14T03:35:22.831Z,96.60
2022-10-14T03:36:22.829Z,96.60
2022-10-14T03:37:22.856Z,96.70
2022-10-14T03:38:22.811Z,96.91
2022-10-14T03:39:22.791Z,97.00
2022-10-14T03:40:22.796Z,96.91
2022-10-14T03:41:22.751Z,96.91
2022-10-14T03:42:22.989Z,97.00
2022-10-14T03:43:22.762Z,96.91
2022-10-14T03:44:23.712Z,96.91
2022-10-14T03:45:22.736Z,96.80
2022-10-14T03:46:22.933Z,97.00
2022-10-14T03:47:23.643Z,97.11
2022-10-14T03:48:22.663Z,97.11
2022-10-14T03:49:22.661Z,97.11
2022-10-14T03:50:22.638Z,97.00
2022-10-14T03:51:22.633Z,97.00
2022-10-14T03:52:22.922Z,97.00
2022-10-14T03:53:22.612Z,97.00
2022-10-14T03:54:22.576Z,96.91
2022-10-14T03:55:22.565Z,96.91
2022-10-14T03:56:22.554Z,96.80
2022-10-14T03:57:22.555Z,96.91
2022-10-14T03:58:22.546Z,96.80
2022-10-14T03:59:22.516Z,96.80
2022-10-14T04:00:22.496Z,96.70
2022-10-14T04:01:22.543Z,96.39
2022-10-14T04:02:23.104Z,96.60
2022-10-14T04:03:22.458Z,96.60
2022-10-14T04:04:22.455Z,96.70
2022-10-14T04:05:22.437Z,96.80
2022-10-14T04:06:22.440Z,96.60
2022-10-14T04:07:22.417Z,96.50
2022-10-14T04:08:22.400Z,96.60
2022-10-14T04:09:22.380Z,96.70
2022-10-14T04:10:22.386Z,96.80
2022-10-14T04:11:22.355Z,96.70
2022-10-14T04:12:22.689Z,96.75
2022-10-14T04:13:22.330Z,96.70
2022-10-14T04:14:22.307Z,96.84
2022-10-14T04:15:22.304Z,96.75
2022-10-14T04:16:22.291Z,96.80
2022-10-14T04:17:22.281Z,96.84
2022-10-14T04:18:23.221Z,96.95
2022-10-14T04:19:22.254Z,97.25
2022-10-14T04:20:22.237Z,97.36
2022-10-14T04:21:22.260Z,97.46
2022-10-14T04:22:22.493Z,97.46
2022-10-14T04:23:22.199Z,97.46
2022-10-14T04:24:22.179Z,97.46
2022-10-14T04:25:22.166Z,97.56
2022-10-14T04:26:22.164Z,97.66
2022-10-14T04:27:22.142Z,97.66
2022-10-14T04:28:22.176Z,97.72
2022-10-14T04:29:22.123Z,97.41
2022-10-14T04:30:22.105Z,97.46
2022-10-14T04:31:22.095Z,97.46
2022-10-14T04:32:22.283Z,97.41
2022-10-14T04:33:22.066Z,97.52
2022-10-14T04:34:22.047Z,97.52
2022-10-14T04:35:22.036Z,97.52
2022-10-14T04:36:22.026Z,97.62
2022-10-14T04:37:22.012Z,97.56
2022-10-14T04:38:23.468Z,97.66
2022-10-14T04:39:21.988Z,97.52
2022-10-14T04:40:21.978Z,97.52
2022-10-14T04:41:21.958Z,97.36
2022-10-14T04:42:22.180Z,97.46
2022-10-14T04:43:22.879Z,97.56
2022-10-14T04:44:21.908Z,97.46
2022-10-14T04:45:21.913Z,97.56
2022-10-14T04:46:21.909Z,97.56
2022-10-14T04:47:21.875Z,97.36
2022-10-14T04:48:21.870Z,97.56
2022-10-14T04:49:21.849Z,97.66
2022-10-14T04:50:21.831Z,97.77
2022-10-14T04:51:21.827Z,97.66
2022-10-14T04:52:22.026Z,97.52
2022-10-14T04:53:22.749Z,97.62
2022-10-14T04:54:21.782Z,97.82
2022-10-14T04:55:21.766Z,97.72
2022-10-14T04:56:21.772Z,97.72
2022-10-14T04:57:21.745Z,97.82
2022-10-14T04:58:21.733Z,97.72
2022-10-14T04:59:21.720Z,97.72
2022-10-14T05:00:21.726Z,97.62
2022-10-14T05:01:21.730Z,97.62
2022-10-14T05:02:21.873Z,97.52
2022-10-14T05:03:21.654Z,97.31
2022-10-14T05:04:21.664Z,97.41
2022-10-14T05:05:22.582Z,97.31
2022-10-14T05:06:21.636Z,97.06
2022-10-14T05:07:21.605Z,96.96
2022-10-14T05:08:22.545Z,96.96
2022-10-14T05:09:21.583Z,96.86
2022-10-14T05:10:21.568Z,96.96
2022-10-14T05:11:21.559Z,96.96
2022-10-14T05:12:21.693Z,97.06
2022-10-14T05:13:21.537Z,96.96
2022-10-14T05:14:21.527Z,97.06
2022-10-14T05:15:21.493Z,96.96
2022-10-14T05:16:21.508Z,96.76
2022-10-14T05:17:21.475Z,96.96
2022-10-14T05:18:21.472Z,97.16
2022-10-14T05:19:21.449Z,97.27
2022-10-14T05:20:21.437Z,97.16
2022-10-14T05:21:21.429Z,97.27
2022-10-14T05:22:21.684Z,97.16
2022-10-14T05:23:21.390Z,97.06
2022-10-14T05:24:21.377Z,97.06
2022-10-14T05:25:21.359Z,96.96
2022-10-14T05:26:21.370Z,97.06
2022-10-14T05:27:21.343Z,97.06
2022-10-14T05:28:21.410Z,96.96
2022-10-14T05:29:21.311Z,96.86
2022-10-14T05:30:21.301Z,96.86
2022-10-14T05:31:21.295Z,96.86
2022-10-14T05:32:21.519Z,96.76
2022-10-14T05:33:21.253Z,96.76
2022-10-14T05:34:21.244Z,96.76
2022-10-14T05:35:39.795Z,96.76
2022-10-14T05:36:22.236Z,96.66
2022-10-14T05:37:21.204Z,96.76
2022-10-14T05:38:21.194Z,96.86
2022-10-14T05:39:21.175Z,96.76
2022-10-14T05:40:22.124Z,96.86
2022-10-14T05:41:21.188Z,97.06
2022-10-14T05:42:21.505Z,97.06
2022-10-14T05:43:21.155Z,97.16
2022-10-14T05:44:21.113Z,97.16
2022-10-14T05:45:21.104Z,97.16
2022-10-14T05:46:21.106Z,97.16
2022-10-14T05:47:21.061Z,97.27
2022-10-14T05:48:21.057Z,97.27
2022-10-14T05:49:21.040Z,97.37
2022-10-14T05:50:21.037Z,97.27
2022-10-14T05:51:21.035Z,97.37
2022-10-14T05:52:21.229Z,97.37
2022-10-14T05:53:20.987Z,97.47
2022-10-14T05:54:20.978Z,97.37
2022-10-14T05:55:21.064Z,97.16
2022-10-14T05:56:21.935Z,97.06
2022-10-14T05:57:20.940Z,96.96
2022-10-14T05:58:20.925Z,97.06
2022-10-14T05:59:21.869Z,97.06
2022-10-14T06:00:25.551Z,97.11
2022-10-14T06:01:21.889Z,97.37
2022-10-14T06:02:21.126Z,97.27
2022-10-14T06:03:21.076Z,97.27
2022-10-14T06:04:20.856Z,97.37
2022-10-14T06:05:20.869Z,97.37
2022-10-14T06:06:24.171Z,97.27
2022-10-14T06:07:21.802Z,97.27
2022-10-14T06:08:20.792Z,97.47
2022-10-14T06:09:20.772Z,97.47
2022-10-14T06:10:20.763Z,97.47
2022-10-14T06:11:20.766Z,97.57
2022-10-14T06:12:20.984Z,97.57
2022-10-14T06:13:20.720Z,97.67
2022-10-14T06:14:20.714Z,97.53
2022-10-14T06:15:20.694Z,97.42
2022-10-14T06:16:20.702Z,97.32
2022-10-14T06:17:21.616Z,97.32
2022-10-14T06:18:20.655Z,97.42
2022-10-14T06:19:20.636Z,97.22
2022-10-14T06:20:20.639Z,97.22
2022-10-14T06:21:20.617Z,97.12
2022-10-14T06:22:20.904Z,97.12
2022-10-14T06:23:20.586Z,97.02
2022-10-14T06:24:20.579Z,96.67
2022-10-14T06:25:20.567Z,96.71
2022-10-14T06:26:20.564Z,96.92
2022-10-14T06:27:20.537Z,96.92
2022-10-14T06:28:21.558Z,96.92
2022-10-14T06:29:20.511Z,96.77
2022-10-14T06:30:20.509Z,96.67
2022-10-14T06:31:20.479Z,96.67
2022-10-14T06:32:20.889Z,96.36
2022-10-14T06:33:20.460Z,96.15
2022-10-14T06:34:20.451Z,96.15
2022-10-14T06:35:20.450Z,96.15
2022-10-14T06:36:20.433Z,96.01
2022-10-14T06:37:20.400Z,95.91
2022-10-14T06:38:20.398Z,95.81
2022-10-14T06:39:20.376Z,95.70
2022-10-14T06:40:21.461Z,95.70
2022-10-14T06:41:20.352Z,95.61
2022-10-14T06:42:20.342Z,95.40
2022-10-14T06:43:20.332Z,95.40
2022-10-14T06:44:20.322Z,95.40
2022-10-14T06:45:20.345Z,95.30
2022-10-14T06:46:20.293Z,95.09
2022-10-14T06:47:20.273Z,95.05
2022-10-14T06:48:21.214Z,94.95
2022-10-14T06:49:20.245Z,94.95
2022-10-14T06:50:20.244Z,94.74
2022-10-14T06:51:20.217Z,95.05
2022-10-14T06:52:20.416Z,95.05
2022-10-14T06:53:20.194Z,94.95
2022-10-14T06:54:20.192Z,94.95
2022-10-14T06:55:20.177Z,94.95
2022-10-14T06:56:20.167Z,94.85
2022-10-14T06:57:20.146Z,94.74
2022-10-14T06:58:20.126Z,94.85
2022-10-14T06:59:20.117Z,94.44
2022-10-14T07:00:20.117Z,94.60
2022-10-14T07:01:20.120Z,94.50
2022-10-14T07:02:20.309Z,94.40
2022-10-14T07:03:20.062Z,94.40
2022-10-14T07:04:20.047Z,94.40
2022-10-14T07:05:20.048Z,94.29
2022-10-14T07:06:20.036Z,94.09
2022-10-14T07:07:20.021Z,94.20
2022-10-14T07:08:20.000Z,94.09
2022-10-14T07:09:20.000Z,93.95
2022-10-14T07:10:19.982Z,93.84
2022-10-14T07:11:19.963Z,93.84
2022-10-14T07:12:20.241Z,93.44
2022-10-14T07:13:19.934Z,93.33
2022-10-14T07:14:19.937Z,93.29
2022-10-14T07:15:19.927Z,93.29
2022-10-14T07:16:19.903Z,93.29
2022-10-14T07:17:20.301Z,93.29
2022-10-14T07:18:19.881Z,92.99
2022-10-14T07:19:19.863Z,93.09
2022-10-14T07:20:19.864Z,93.19
2022-10-14T07:21:19.833Z,92.99
2022-10-14T07:22:20.136Z,93.09
2022-10-14T07:23:19.803Z,93.19
2022-10-14T07:24:19.793Z,93.29
2022-10-14T07:25:19.796Z,93.29
2022-10-14T07:26:19.782Z,93.19
2022-10-14T07:27:20.060Z,93.09
2022-10-14T07:28:19.818Z,92.99
2022-10-14T07:29:19.736Z,93.19
2022-10-14T07:30:19.767Z,93.09
2022-10-14T07:31:19.723Z,93.25
2022-10-14T07:32:19.709Z,93.05
2022-10-14T07:33:19.698Z,92.94
2022-10-14T07:34:19.704Z,93.05
2022-10-14T07:35:19.653Z,92.84
2022-10-14T07:36:22.351Z,92.64
2022-10-14T07:37:19.869Z,92.33
2022-10-14T07:38:19.610Z,91.89
2022-10-14T07:39:19.588Z,92.19
2022-10-14T07:40:19.589Z,92.19
2022-10-14T07:41:19.570Z,92.09
2022-10-14T07:43:19.550Z,91.89
2022-10-14T07:44:22.432Z,91.89
2022-10-14T07:45:20.512Z,91.78
2022-10-14T07:46:19.513Z,91.68
2022-10-14T07:47:19.719Z,91.68
2022-10-14T07:48:27.285Z,91.68
2022-10-14T07:49:20.477Z,91.48
2022-10-14T07:50:19.473Z,91.44
2022-10-14T07:51:19.462Z,91.58
2022-10-14T07:52:19.484Z,91.24
2022-10-14T07:53:19.483Z,91.48
2022-10-14T07:54:20.402Z,91.17
2022-10-14T07:55:19.403Z,91.17
2022-10-14T07:56:19.387Z,91.44
2022-10-14T07:57:20.722Z,91.24
2022-10-14T07:58:19.342Z,90.93
2022-10-14T07:59:19.361Z,90.93
2022-10-14T08:00:19.318Z,91.03
2022-10-14T08:01:19.381Z,90.93
2022-10-14T08:02:19.286Z,90.83
2022-10-14T08:03:19.276Z,90.93
2022-10-14T08:04:19.278Z,90.58
2022-10-14T08:05:37.150Z,90.18
2022-10-14T08:06:20.246Z,90.38
2022-10-14T08:07:19.530Z,90.38
2022-10-14T08:08:19.210Z,90.28
2022-10-14T08:09:19.263Z,89.87
2022-10-14T08:10:19.186Z,90.24
2022-10-14T08:11:20.132Z,90.03
2022-10-14T08:12:19.528Z,90.24
2022-10-14T08:13:19.173Z,90.34
2022-10-14T08:14:19.182Z,90.03
2022-10-14T08:15:19.171Z,89.28
2022-10-14T08:16:19.140Z,88.78
2022-10-14T08:17:20.066Z,88.88
2022-10-14T08:18:19.084Z,88.88
2022-10-14T08:19:19.081Z,88.37
2022-10-14T08:20:19.101Z,88.48
2022-10-14T08:21:19.066Z,88.57
2022-10-14T08:22:19.221Z,88.57
2022-10-14T08:23:19.951Z,88.17
2022-10-14T08:24:19.038Z,88.07
2022-10-14T08:25:19.012Z,87.56
2022-10-14T08:26:18.974Z,87.87
2022-10-14T08:27:19.919Z,88.17
2022-10-14T08:28:18.961Z,87.87
2022-10-14T08:29:18.945Z,87.77
2022-10-14T08:30:18.922Z,87.87
2022-10-14T08:31:18.937Z,88.27
2022-10-14T08:32:19.134Z,88.23
2022-10-14T08:33:18.876Z,88.64
2022-10-14T08:34:18.878Z,88.02
2022-10-14T08:35:18.864Z,87.32
2022-10-14T08:36:18.880Z,87.32
2022-10-14T08:37:18.887Z,87.82
2022-10-14T08:38:18.850Z,87.12
2022-10-14T08:39:18.853Z,87.42
2022-10-14T08:40:18.800Z,86.98
2022-10-14T08:41:18.770Z,87.48
2022-10-14T08:42:18.947Z,87.28
2022-10-14T08:43:18.758Z,87.22
2022-10-14T08:44:18.740Z,87.42
2022-10-14T08:45:18.720Z,87.48
2022-10-14T08:46:18.858Z,87.28
2022-10-14T08:47:18.691Z,86.61
2022-10-14T08:48:18.670Z,87.22
2022-10-14T08:49:18.666Z,87.42
2022-10-14T08:50:18.642Z,87.62
2022-10-14T08:51:18.641Z,87.52
2022-10-14T08:52:18.622Z,87.66
2022-10-14T08:53:18.614Z,87.77
2022-10-14T08:54:18.593Z,87.56
2022-10-14T08:55:18.582Z,87.97
2022-10-14T08:56:18.568Z,87.97
2022-10-14T08:57:18.557Z,88.23
2022-10-14T08:58:18.672Z,88.02
2022-10-14T08:59:18.555Z,87.52
2022-10-14T09:00:18.524Z,88.23
2022-10-14T09:01:18.507Z,88.02
2022-10-14T09:02:19.555Z,87.79
2022-10-14T09:03:18.543Z,86.77
2022-10-14T09:04:18.505Z,87.08
2022-10-14T09:05:18.436Z,86.77
2022-10-14T09:06:18.437Z,87.08
2022-10-14T09:07:18.427Z,87.18
2022-10-14T09:08:19.356Z,86.57
2022-10-14T09:09:18.396Z,86.13
2022-10-14T09:10:18.385Z,86.53
2022-10-14T09:11:18.358Z,86.22
2022-10-14T09:12:18.371Z,85.99
2022-10-14T09:13:18.329Z,85.72
2022-10-14T09:14:18.308Z,85.68
2022-10-14T09:15:18.299Z,85.88
2022-10-14T09:16:18.288Z,86.08
2022-10-14T09:17:19.251Z,85.08
2022-10-14T09:18:18.270Z,84.93
2022-10-14T09:19:18.248Z,84.93
2022-10-14T09:20:18.231Z,84.03
2022-10-14T09:21:27.755Z,84.53
2022-10-14T09:22:19.419Z,85.03
2022-10-14T09:23:18.212Z,85.24
2022-10-14T09:24:18.181Z,84.83
2022-10-14T09:25:18.175Z,84.63
2022-10-14T09:26:18.182Z,85.03
2022-10-14T09:27:18.162Z,85.34
2022-10-14T09:28:18.132Z,84.73
2022-10-14T09:29:18.131Z,85.24
2022-10-14T09:30:18.094Z,84.23
2022-10-14T09:31:18.097Z,84.43
2022-10-14T09:32:18.085Z,84.83
2022-10-14T09:33:18.076Z,85.03
2022-10-14T09:34:18.046Z,84.93
2022-10-14T09:35:18.037Z,84.83
2022-10-14T09:36:18.025Z,83.32
2022-10-14T09:37:18.046Z,83.52
2022-10-14T09:38:17.997Z,83.62
2022-10-14T09:39:17.986Z,82.98
2022-10-14T09:40:17.981Z,82.98
2022-10-14T09:41:18.917Z,82.53
2022-10-14T09:42:17.973Z,84.11
2022-10-14T09:43:17.939Z,83.40
2022-10-14T09:44:17.920Z,81.65
2022-10-14T09:45:17.921Z,81.65
2022-10-14T09:46:17.913Z,81.51
2022-10-14T09:47:17.954Z,81.47
2022-10-14T09:48:20.423Z,80.06
2022-10-14T09:49:17.885Z,79.66
2022-10-14T09:50:17.887Z,79.76
2022-10-14T09:51:17.851Z,79.56
2022-10-14T09:52:17.812Z,80.50
2022-10-14T09:53:17.808Z,79.86
2022-10-14T09:54:17.787Z,79.69
2022-10-14T09:55:17.771Z,80.10
2022-10-14T09:56:18.990Z,79.29
2022-10-14T09:57:17.763Z,79.13
2022-10-14T09:58:17.720Z,78.83
2022-10-14T09:59:17.715Z,79.73
2022-10-14T10:00:17.769Z,81.35
2022-10-14T10:01:17.692Z,80.13
2022-10-14T10:02:17.689Z,79.60
2022-10-14T10:03:17.667Z,78.99
2022-10-14T10:04:17.912Z,78.49
2022-10-14T10:05:17.634Z,78.25
2022-10-14T10:06:17.626Z,78.05
2022-10-14T10:07:17.642Z,78.55
2022-10-14T10:08:17.600Z,78.31
2022-10-14T10:09:17.604Z,77.61
2022-10-14T10:10:17.616Z,77.50
2022-10-14T10:11:17.568Z,77.81
2022-10-14T10:12:17.566Z,78.31
2022-10-14T10:13:17.546Z,76.97
2022-10-14T10:14:17.512Z,77.37
2022-10-14T10:15:17.501Z,78.47
2022-10-14T10:16:17.500Z,76.26
2022-10-14T10:17:17.471Z,78.54
2022-10-14T10:18:17.721Z,79.14
2022-10-14T10:19:17.449Z,77.03
2022-10-14T10:20:17.489Z,77.63
2022-10-14T10:21:17.451Z,77.03
2022-10-14T10:23:17.395Z,76.36
2022-10-14T10:24:17.390Z,76.97
2022-10-14T10:25:17.373Z,76.06
2022-10-14T10:26:17.376Z,76.36
2022-10-14T10:27:17.355Z,76.12
2022-10-14T10:28:17.365Z,72.74
2022-10-14T10:29:17.314Z,76.32
2022-10-14T10:30:17.360Z,76.23
2022-10-14T10:31:17.448Z,73.91
2022-10-14T10:32:17.276Z,72.03
2022-10-14T10:33:17.267Z,73.85
2022-10-14T10:34:17.258Z,74.29
2022-10-14T10:35:17.263Z,75.15
2022-10-14T10:36:17.231Z,75.59
2022-10-14T10:37:17.237Z,75.56
2022-10-14T10:38:17.216Z,75.96
2022-10-14T10:39:17.253Z,75.86
2022-10-14T10:40:17.202Z,73.14
2022-10-14T10:41:17.156Z,73.55
2022-10-14T10:42:17.139Z,74.35
2022-10-14T10:43:17.162Z,72.24
2022-10-14T10:44:17.108Z,74.45
2022-10-14T10:45:17.128Z,72.77
2022-10-14T10:46:17.096Z,74.08
2022-10-14T10:47:17.070Z,75.56
2022-10-14T10:48:17.061Z,74.65
2022-10-14T10:49:17.051Z,75.26
2022-10-14T10:50:17.134Z,74.65
2022-10-14T10:51:17.022Z,73.88
2022-10-14T10:52:20.428Z,75.19
2022-10-14T10:53:16.994Z,75.19
2022-10-14T10:54:16.985Z,75.29
2022-10-14T10:55:16.981Z,75.15
2022-10-14T10:56:16.965Z,74.45
2022-10-14T10:57:16.945Z,74.25
2022-10-14T10:58:16.936Z,74.45
2022-10-14T10:59:16.985Z,73.95
2022-10-14T11:00:17.005Z,74.55
2022-10-14T11:01:16.949Z,74.05
2022-10-14T11:02:16.878Z,74.65
2022-10-14T11:03:16.865Z,74.65
2022-10-14T11:04:16.849Z,71.94
2022-10-14T11:05:16.848Z,72.84
2022-10-14T11:06:16.829Z,73.81
2022-10-14T11:07:16.812Z,72.81
2022-10-14T11:08:16.802Z,73.61
2022-10-14T11:09:16.798Z,73.75
2022-10-14T11:10:16.828Z,73.75
2022-10-14T11:11:16.776Z,75.35
2022-10-14T11:12:16.752Z,75.15
2022-10-14T11:13:16.740Z,74.25
2022-10-14T11:14:16.741Z,73.68
2022-10-14T11:15:16.719Z,74.15
2022-10-14T11:16:16.724Z,73.65
2022-10-14T11:17:16.725Z,73.78
2022-10-14T11:18:16.683Z,73.68
2022-10-14T11:19:16.664Z,75.09
2022-10-14T11:20:16.751Z,73.18
2022-10-14T11:21:16.632Z,73.52
2022-10-14T11:22:16.615Z,75.13
2022-10-14T11:23:16.618Z,74.62
2022-10-14T11:25:16.615Z,75.06
2022-10-14T11:26:16.566Z,75.36
2022-10-14T11:27:18.671Z,76.27
2022-10-14T11:28:17.591Z,75.76
2022-10-14T11:29:16.587Z,77.01
2022-10-14T11:30:16.547Z,76.81
2022-10-14T11:31:16.500Z,76.10
2022-10-14T11:32:16.570Z,76.31
2022-10-14T11:33:16.499Z,77.82
2022-10-14T11:34:16.473Z,77.42
2022-10-14T11:35:16.547Z,78.12
2022-10-14T11:36:16.452Z,78.52
2022-10-14T11:37:16.452Z,77.01
2022-10-14T11:38:16.473Z,78.02
2022-10-14T11:39:16.418Z,78.32
2022-10-14T11:40:16.439Z,77.28
2022-10-14T11:41:16.371Z,77.78
2022-10-14T11:42:16.384Z,78.49
2022-10-14T11:43:16.396Z,75.63
2022-10-14T11:44:16.322Z,76.20
2022-10-14T11:45:18.786Z,76.90
2022-10-14T11:46:17.293Z,75.26
2022-10-14T11:47:16.284Z,76.46
2022-10-14T11:48:16.267Z,75.35
2022-10-14T11:49:16.263Z,77.53
2022-10-14T11:50:16.246Z,76.93
2022-10-14T11:51:16.235Z,76.69
2022-10-14T11:52:16.215Z,73.38
2022-10-14T11:53:16.202Z,73.34
2022-10-14T11:54:16.196Z,72.44
2022-10-14T11:55:16.187Z,71.53
2022-10-14T11:56:16.167Z,70.93
2022-10-14T11:57:16.148Z,72.60
2022-10-14T11:58:16.151Z,71.09
2022-10-14T11:59:16.145Z,71.40
2022-10-14T12:00:16.382Z,72.40
2022-10-14T12:01:16.120Z,70.50
2022-10-14T12:02:16.810Z,71.70
2022-10-14T12:03:16.346Z,72.40
2022-10-14T12:04:16.060Z,71.86
2022-10-14T12:05:16.064Z,71.36
2022-10-14T12:06:16.037Z,71.66
2022-10-14T12:07:16.011Z,70.96
2022-10-14T12:08:16.009Z,70.26
2022-10-14T12:09:16.010Z,71.47
2022-10-14T12:10:15.983Z,70.66
2022-10-14T12:11:15.985Z,70.56
2022-10-14T12:12:15.953Z,71.20
2022-10-14T12:13:15.959Z,72.10
2022-10-14T12:14:15.933Z,73.17
2022-10-14T12:15:16.897Z,73.57
2022-10-14T12:16:15.911Z,72.47
2022-10-14T12:17:18.432Z,71.86
2022-10-14T12:18:15.885Z,71.13
2022-10-14T12:19:15.896Z,73.03
2022-10-14T12:20:15.855Z,72.03
2022-10-14T12:21:15.866Z,72.63
2022-10-14T12:22:15.881Z,71.23
2022-10-14T12:23:16.774Z,71.97
2022-10-14T12:24:15.807Z,69.66
2022-10-14T12:25:15.788Z,71.16
2022-10-14T12:26:15.776Z,71.56
2022-10-14T12:27:15.749Z,71.47
2022-10-14T12:28:16.744Z,71.09
2022-10-14T12:29:15.776Z,70.59
2022-10-14T12:30:15.719Z,71.33
2022-10-14T12:31:15.700Z,72.03
2022-10-14T12:32:15.692Z,72.84
2022-10-14T12:33:20.110Z,72.44
2022-10-14T12:34:16.671Z,71.83
2022-10-14T12:35:15.640Z,72.03
2022-10-14T12:36:15.650Z,72.44
2022-10-14T12:37:15.623Z,72.74
2022-10-14T12:38:15.863Z,72.33
2022-10-14T12:39:15.603Z,73.44
2022-10-14T12:40:15.582Z,73.61
2022-10-14T12:41:16.807Z,72.50
2022-10-14T12:42:15.596Z,70.89
2022-10-14T12:43:15.542Z,72.20
2022-10-14T12:44:15.568Z,73.21
2022-10-14T12:45:15.555Z,71.06
2022-10-14T12:46:15.571Z,71.16
2022-10-14T12:47:15.516Z,71.66
2022-10-14T12:48:15.499Z,71.16
2022-10-14T12:49:15.458Z,71.70
2022-10-14T12:50:15.444Z,71.77
2022-10-14T12:51:15.431Z,72.17
2022-10-14T12:52:15.419Z,72.37
2022-10-14T12:53:15.417Z,71.97
2022-10-14T12:54:15.399Z,71.16
2022-10-14T12:55:15.387Z,70.16